createdAt,value
2022-09-17T00:06:38.945Z,17.13
2022-09-17T00:13:27.628Z,17.16
2022-09-17T00:20:13.894Z,17.24
2022-09-17T00:26:59.855Z,17.27
2022-09-17T00:33:48.053Z,17.22
2022-09-17T00:40:33.584Z,17.18
2022-09-17T00:47:26.356Z,17.18
2022-09-17T00:54:15.254Z,17.19
2022-09-17T01:01:00.638Z,17.31
2022-09-17T01:08:05.657Z,17.32
2022-09-17T01:15:15.945Z,17.16
2022-09-17T01:22:08.504Z,17.04
2022-09-17T01:29:04.676Z,16.76
2022-09-17T01:36:03.767Z,16.63
2022-09-17T01:42:59.687Z,16.70
2022-09-17T01:49:46.069Z,16.63
2022-09-17T01:56:40.739Z,16.11
2022-09-17T02:03:30.732Z,16.39
2022-09-17T02:10:21.230Z,16.17
2022-09-17T02:17:19.289Z,16.45
2022-09-17T02:24:17.943Z,16.38
2022-09-17T02:31:03.382Z,16.49
2022-09-17T02:37:53.201Z,16.50
2022-09-17T02:44:50.476Z,16.30
2022-09-17T03:05:28.191Z,15.98
2022-09-17T03:12:15.327Z,15.48
2022-09-17T03:19:00.783Z,15.97
2022-09-17T03:25:49.604Z,16.10
2022-09-17T03:32:34.989Z,15.82
2022-09-17T03:39:20.405Z,16.46
2022-09-17T03:46:08.561Z,16.63
2022-09-17T03:52:53.964Z,16.68
2022-09-17T03:59:39.886Z,16.91
2022-09-17T04:06:28.070Z,17.04
2022-09-17T04:13:13.855Z,17.11
2022-09-17T04:19:59.224Z,17.18
2022-09-17T04:26:47.369Z,17.22
2022-09-17T04:33:32.961Z,17.27
2022-09-17T04:40:18.717Z,17.11
2022-09-17T04:47:06.939Z,17.21
2022-09-17T04:53:52.333Z,17.32
2022-09-17T05:00:38.077Z,17.37
2022-09-17T05:07:26.369Z,17.37
2022-09-17T05:14:11.937Z,16.64
2022-09-17T05:20:57.313Z,16.65
2022-09-17T05:27:45.565Z,17.16
2022-09-17T05:34:30.942Z,17.41
2022-09-17T05:41:16.956Z,17.45
2022-09-17T05:48:06.737Z,17.43
2022-09-17T05:54:52.138Z,17.53
2022-09-17T06:01:37.534Z,17.62
2022-09-17T06:08:25.775Z,17.55
2022-09-17T06:15:14.645Z,17.68
2022-09-17T06:21:59.985Z,17.55
2022-09-17T06:28:48.753Z,17.54
2022-09-17T06:35:34.136Z,17.62
2022-09-17T06:42:19.480Z,17.70
2022-09-17T06:49:08.016Z,17.77
2022-09-17T06:55:53.563Z,17.90
2022-09-17T07:02:38.904Z,17.95
2022-09-17T07:09:26.980Z,17.96
2022-09-17T07:16:14.136Z,18.05
2022-09-17T07:22:59.977Z,18.22
2022-09-17T07:29:47.923Z,18.29
2022-09-17T07:36:33.268Z,18.33
2022-09-17T07:43:18.607Z,18.38
2022-09-17T07:50:06.865Z,18.14
2022-09-17T07:56:52.207Z,18.55
2022-09-17T08:03:37.901Z,18.55
2022-09-17T08:10:27.232Z,18.48
2022-09-17T08:17:13.052Z,18.52
2022-09-17T08:23:58.453Z,18.46
2022-09-17T08:30:46.507Z,18.22
2022-09-17T08:37:32.929Z,18.17
2022-09-17T08:44:27.932Z,17.75
2022-09-17T08:51:34.701Z,18.01
2022-09-17T08:58:54.081Z,18.47
2022-09-17T09:05:47.536Z,18.48
2022-09-17T09:12:39.190Z,18.60
2022-09-17T09:19:28.149Z,18.81
2022-09-17T09:26:21.117Z,18.79
2022-09-17T09:33:17.932Z,18.74
2022-09-17T09:40:18.617Z,18.99
2022-09-17T09:47:28.220Z,19.40
2022-09-17T09:54:39.445Z,19.59
2022-09-17T10:01:25.855Z,19.75
2022-09-17T10:08:16.577Z,19.79
2022-09-17T10:15:28.577Z,19.70
2022-09-17T10:22:30.345Z,19.01
2022-09-17T10:29:20.066Z,18.61
2022-09-17T10:36:11.464Z,18.47
2022-09-17T10:43:26.005Z,18.50
2022-09-17T10:50:21.270Z,18.58
2022-09-17T10:57:11.402Z,18.70
2022-09-17T11:04:25.544Z,18.94
2022-09-17T11:11:17.848Z,19.13
2022-09-17T11:18:28.981Z,19.38
2022-09-17T11:25:40.452Z,19.53
2022-09-17T11:32:59.160Z,19.81
2022-09-17T11:39:55.420Z,20.04
2022-09-17T11:46:49.486Z,19.83
2022-09-17T11:53:40.603Z,20.35
2022-09-17T12:00:32.212Z,20.45
2022-09-17T12:07:38.801Z,20.36
2022-09-17T12:14:29.271Z,20.03
2022-09-17T12:21:24.080Z,19.77
2022-09-17T12:28:14.677Z,20.33
2022-09-17T12:35:13.868Z,20.33
2022-09-17T12:42:15.401Z,20.45
2022-09-17T12:49:30.714Z,20.54
2022-09-17T12:56:33.238Z,20.69
2022-09-17T13:03:29.177Z,20.69
2022-09-17T13:11:09.441Z,20.98
2022-09-17T13:18:22.990Z,21.01
2022-09-17T13:25:15.400Z,21.09
2022-09-17T13:32:01.938Z,21.19
2022-09-17T13:38:47.397Z,21.10
2022-09-17T13:45:36.475Z,20.91
2022-09-17T13:52:40.190Z,20.89
2022-09-17T13:59:30.183Z,20.84
2022-09-17T14:06:59.675Z,20.67
2022-09-17T14:13:47.371Z,20.75
2022-09-17T14:20:36.475Z,20.72
2022-09-17T14:27:52.299Z,20.76
2022-09-17T14:34:38.350Z,20.86
2022-09-17T14:41:27.931Z,20.70
2022-09-17T14:48:32.662Z,20.18
2022-09-17T14:55:24.119Z,20.38
2022-09-17T15:02:41.426Z,20.43
2022-09-17T15:09:30.447Z,20.39
2022-09-17T15:16:25.299Z,20.55
2022-09-17T15:23:16.995Z,20.76
2022-09-17T15:30:08.576Z,20.87
2022-09-17T15:37:20.175Z,20.48
2022-09-17T15:44:29.770Z,20.77
2022-09-17T15:51:29.697Z,20.57
2022-09-17T15:58:27.193Z,20.35
2022-09-17T16:05:54.203Z,20.31
2022-09-17T16:12:44.868Z,20.14
2022-09-17T16:19:30.189Z,19.73
2022-09-17T16:26:21.160Z,19.79
2022-09-17T16:33:09.550Z,19.57
2022-09-17T16:39:55.238Z,19.69
2022-09-17T16:46:40.650Z,19.76
2022-09-17T16:53:28.837Z,19.28
2022-09-17T17:00:19.520Z,19.74
2022-09-17T17:07:05.369Z,19.55
2022-09-17T17:13:53.297Z,19.40
2022-09-17T17:20:38.841Z,19.29
2022-09-17T17:27:24.176Z,19.16
2022-09-17T17:34:12.519Z,19.00
2022-09-17T17:41:07.663Z,18.38
2022-09-17T17:47:53.124Z,18.89
2022-09-17T17:54:41.308Z,18.86
2022-09-17T18:01:30.599Z,18.73
2022-09-17T18:08:16.013Z,19.10
2022-09-17T18:15:04.067Z,19.13
2022-09-17T18:21:49.625Z,19.06
2022-09-17T18:28:37.641Z,19.01
2022-09-17T18:35:25.640Z,19.03
2022-09-17T18:42:11.311Z,19.10
2022-09-17T18:48:57.777Z,18.98
2022-09-17T18:55:49.756Z,18.91
2022-09-17T19:02:36.192Z,19.05
2022-09-17T19:09:21.565Z,18.97
2022-09-17T19:16:10.959Z,18.86
2022-09-17T19:22:56.372Z,18.59
2022-09-17T19:29:41.721Z,18.69
2022-09-17T19:36:30.231Z,18.34
2022-09-17T19:43:15.771Z,18.58
2022-09-17T19:50:01.177Z,18.57
2022-09-17T19:56:49.343Z,18.51
2022-09-17T20:03:34.843Z,18.49
2022-09-17T20:10:20.465Z,18.21
2022-09-17T20:17:08.525Z,18.35
2022-09-17T20:23:54.254Z,18.32
2022-09-17T20:30:39.965Z,18.29
2022-09-17T20:38:08.297Z,18.22
2022-09-17T20:44:33.312Z,18.17
2022-09-17T20:51:21.417Z,18.17
2022-09-17T20:58:09.932Z,18.18
2022-09-17T21:04:56.407Z,18.12
2022-09-17T21:11:42.488Z,17.75
2022-09-17T21:18:32.697Z,17.46
2022-09-17T21:25:20.546Z,17.25
2022-09-17T21:32:06.231Z,17.22
2022-09-17T21:38:57.889Z,16.85
2022-09-17T21:45:43.214Z,17.30
2022-09-17T21:52:28.615Z,17.08
2022-09-17T21:59:19.265Z,17.04
2022-09-17T22:06:07.250Z,17.24
2022-09-17T22:12:52.708Z,17.42
2022-09-17T22:19:40.676Z,17.35
2022-09-17T22:26:29.135Z,17.66
2022-09-17T22:33:14.489Z,17.73
2022-09-17T22:40:06.377Z,17.77
2022-09-17T22:46:54.348Z,17.85
2022-09-17T22:53:40.864Z,17.92
2022-09-17T23:00:28.838Z,17.97
2022-09-17T23:07:14.454Z,18.02
2022-09-17T23:14:02.253Z,18.02
2022-09-17T23:21:00.599Z,17.47
2022-09-17T23:27:45.952Z,17.98
2022-09-17T23:34:31.835Z,17.99
2022-09-17T23:41:22.609Z,17.95
2022-09-17T23:48:08.077Z,18.00
2022-09-17T23:54:58.228Z,18.02
